Time;durP1;ratioP1;P1;durP2;ratioP2;P2;SDS_P1;SDS_P2;PMS_P1;PMS_P2;Temp;Humidity;BMP_temperature;BMP_pressure;BME280_temperature;BME280_humidity;BME280_pressure;Samples;Min_cycle;Max_cycle;Signal;HPM_P1;HPM_P2
2023/09/02 00:02:07;;;;;;;7.90;5.10;;;;;;;;;;5092158;28;20040;-77
2023/09/02 00:04:34;;;;;;;7.18;4.88;;;;;;;;;;5090587;28;20066;-78
2023/09/02 00:07:00;;;;;;;7.47;4.47;;;;;;;;;;5092449;28;20036;-77
2023/09/02 00:09:26;;;;;;;7.18;4.70;;;;;;;;;;5093763;28;20394;-77
2023/09/02 00:11:52;;;;;;;6.22;4.28;;;;;;;;;;5096347;28;20044;-78
2023/09/02 00:14:19;;;;;;;6.93;4.70;;;;;;;;;;5095366;28;20044;-78
2023/09/02 00:16:45;;;;;;;7.47;4.70;;;;;;;;;;5094039;28;20039;-77
2023/09/02 00:19:11;;;;;;;6.85;4.53;;;;;;;;;;5095608;28;20085;-78
2023/09/02 00:21:37;;;;;;;8.32;4.60;;;;;;;;;;5094589;28;20044;-78
2023/09/02 00:24:07;;;;;;;6.88;4.90;;;;;;;;;;5094021;28;20040;-78
2023/09/02 00:26:33;;;;;;;6.82;4.47;;;;;;;;;;5091914;28;20071;-78
2023/09/02 00:29:00;;;;;;;6.50;4.65;;;;;;;;;;5081819;28;20048;-78
2023/09/02 00:31:26;;;;;;;7.03;4.78;;;;;;;;;;5094768;28;20055;-78
2023/09/02 00:33:53;;;;;;;8.30;4.97;;;;;;;;;;5094413;28;20047;-77
2023/09/02 00:36:19;;;;;;;7.47;4.78;;;;;;;;;;5094673;28;20044;-78
2023/09/02 00:38:45;;;;;;;8.93;4.60;;;;;;;;;;5093969;28;20036;-76
2023/09/02 00:41:15;;;;;;;8.25;4.70;;;;;;;;;;5094346;28;20043;-78
2023/09/02 00:43:41;;;;;;;9.00;5.07;;;;;;;;;;5095184;28;20349;-77
2023/09/02 00:46:09;;;;;;;8.40;4.88;;;;;;;;;;5092489;28;20127;-77
2023/09/02 00:48:36;;;;;;;6.68;4.43;;;;;;;;;;5077531;28;20437;-76
2023/09/02 00:51:02;;;;;;;6.35;4.68;;;;;;;;;;5095296;28;20048;-77
2023/09/02 00:53:29;;;;;;;6.90;4.90;;;;;;;;;;5093251;28;20052;-77
2023/09/02 00:55:55;;;;;;;6.57;4.25;;;;;;;;;;5091746;28;20039;-78
2023/09/02 00:58:21;;;;;;;8.38;4.80;;;;;;;;;;5092368;28;20102;-78
2023/09/02 01:00:48;;;;;;;7.60;4.80;;;;;;;;;;5094635;28;20058;-78
2023/09/02 01:03:14;;;;;;;7.18;4.90;;;;;;;;;;5095158;28;20040;-78
2023/09/02 01:05:41;;;;;;;7.15;4.57;;;;;;;;;;5093314;28;20384;-79
2023/09/02 01:08:07;;;;;;;8.38;5.00;;;;;;;;;;5093307;28;20032;-77
2023/09/02 01:10:34;;;;;;;7.32;5.30;;;;;;;;;;5093161;28;20138;-78
2023/09/02 01:13:02;;;;;;;7.97;5.40;;;;;;;;;;5093670;28;20458;-76
2023/09/02 01:15:28;;;;;;;7.88;4.95;;;;;;;;;;5091012;28;20048;-77
2023/09/02 01:17:54;;;;;;;8.75;5.60;;;;;;;;;;5094835;28;20058;-77
2023/09/02 01:20:22;;;;;;;8.25;5.40;;;;;;;;;;5092260;28;20040;-78
2023/09/02 01:22:48;;;;;;;7.82;5.50;;;;;;;;;;5091624;28;20143;-77
2023/09/02 01:25:40;;;;;;;9.65;5.70;;;;;;;;;;5092363;28;20085;-78
2023/09/02 01:28:11;;;;;;;7.63;6.07;;;;;;;;;;5076259;28;20133;-78
2023/09/02 01:30:39;;;;;;;9.27;6.10;;;;;;;;;;5092808;28;20060;-78
2023/09/02 01:33:09;;;;;;;7.43;5.72;;;;;;;;;;5092989;28;20047;-78
2023/09/02 01:35:37;;;;;;;8.30;5.97;;;;;;;;;;5092958;28;20055;-78
2023/09/02 01:38:04;;;;;;;7.93;6.20;;;;;;;;;;5094318;28;20119;-78
2023/09/02 01:40:32;;;;;;;9.43;6.63;;;;;;;;;;5093033;28;20139;-76
2023/09/02 01:42:59;;;;;;;8.45;6.28;;;;;;;;;;5092999;28;20048;-78
2023/09/02 01:45:27;;;;;;;9.45;6.50;;;;;;;;;;5076302;28;20531;-78
2023/09/02 01:47:53;;;;;;;7.80;6.00;;;;;;;;;;5092997;28;20054;-78
2023/09/02 01:50:21;;;;;;;9.15;6.30;;;;;;;;;;5092451;28;20082;-78
2023/09/02 01:52:48;;;;;;;8.10;6.10;;;;;;;;;;5094145;28;20545;-78
2023/09/02 01:55:15;;;;;;;9.18;6.22;;;;;;;;;;5092793;28;20075;-78
2023/09/02 01:57:44;;;;;;;11.20;7.10;;;;;;;;;;5094604;28;20388;-77
2023/09/02 02:00:11;;;;;;;8.65;6.88;;;;;;;;;;5094350;28;20048;-77
2023/09/02 02:02:43;;;;;;;11.40;6.72;;;;;;;;;;5094366;28;20395;-78
2023/09/02 02:05:12;;;;;;;10.07;6.88;;;;;;;;;;5095241;28;20354;-76
2023/09/02 02:07:40;;;;;;;9.38;7.18;;;;;;;;;;5104689;28;20051;-75
2023/09/02 02:10:08;;;;;;;8.27;6.78;;;;;;;;;;5100999;28;20060;-78
2023/09/02 02:12:34;;;;;;;10.20;6.57;;;;;;;;;;5092835;28;20043;-77
2023/09/02 02:15:00;;;;;;;9.95;7.15;;;;;;;;;;5092522;28;20137;-78
2023/09/02 02:17:26;;;;;;;9.48;6.93;;;;;;;;;;5092320;28;20110;-78
2023/09/02 02:19:52;;;;;;;8.95;6.70;;;;;;;;;;5092177;28;20046;-78
2023/09/02 02:22:18;;;;;;;9.45;7.18;;;;;;;;;;5093791;28;20122;-77
2023/09/02 02:24:44;;;;;;;8.77;6.82;;;;;;;;;;5092044;28;20040;-77
2023/09/02 02:27:10;;;;;;;8.95;7.35;;;;;;;;;;5074971;28;20076;-76
2023/09/02 02:29:36;;;;;;;10.32;7.18;;;;;;;;;;5093168;28;20071;-77
2023/09/02 02:32:02;;;;;;;10.38;7.72;;;;;;;;;;5091669;28;20048;-77
2023/09/02 02:34:28;;;;;;;10.13;7.47;;;;;;;;;;5081304;28;20039;-77
2023/09/02 02:36:54;;;;;;;11.13;7.50;;;;;;;;;;5093586;28;20047;-77
2023/09/02 02:39:21;;;;;;;9.82;8.00;;;;;;;;;;5074545;28;20047;-77
2023/09/02 02:41:47;;;;;;;12.43;8.00;;;;;;;;;;5093304;28;20114;-77
2023/09/02 02:44:13;;;;;;;11.00;8.18;;;;;;;;;;5074242;28;20048;-75
2023/09/02 02:46:39;;;;;;;9.60;7.63;;;;;;;;;;5092383;28;20050;-77
2023/09/02 02:49:05;;;;;;;8.88;7.78;;;;;;;;;;5092646;28;20043;-77
2023/09/02 02:51:31;;;;;;;10.13;8.07;;;;;;;;;;5074823;28;20450;-77
2023/09/02 02:53:57;;;;;;;11.70;8.15;;;;;;;;;;5091109;28;20044;-77
2023/09/02 02:56:23;;;;;;;9.77;8.63;;;;;;;;;;5090739;28;20040;-77
2023/09/02 02:58:49;;;;;;;11.00;8.68;;;;;;;;;;5074254;28;20044;-77
2023/09/02 03:01:15;;;;;;;12.38;8.57;;;;;;;;;;5091545;28;20097;-77
2023/09/02 03:03:41;;;;;;;11.35;8.65;;;;;;;;;;5092414;28;20585;-77
2023/09/02 03:06:07;;;;;;;11.70;9.15;;;;;;;;;;5074687;28;20075;-78
2023/09/02 03:08:34;;;;;;;12.63;9.25;;;;;;;;;;5090721;28;20056;-77
2023/09/02 03:11:02;;;;;;;13.02;9.25;;;;;;;;;;5091452;28;20508;-77
2023/09/02 03:13:30;;;;;;;13.00;9.02;;;;;;;;;;5091347;28;20036;-76
2023/09/02 03:15:57;;;;;;;10.80;9.13;;;;;;;;;;5092486;28;20047;-77
2023/09/02 03:18:24;;;;;;;12.77;8.85;;;;;;;;;;5074187;28;20040;-77
2023/09/02 03:20:50;;;;;;;11.15;9.40;;;;;;;;;;5091793;28;20051;-77
2023/09/02 03:23:16;;;;;;;12.43;9.85;;;;;;;;;;5091995;28;20439;-78
2023/09/02 03:25:42;;;;;;;11.73;9.30;;;;;;;;;;5091149;28;20404;-78
2023/09/02 03:28:08;;;;;;;12.18;9.55;;;;;;;;;;5082882;28;20055;-78
2023/09/02 03:30:34;;;;;;;11.55;9.30;;;;;;;;;;5092471;28;20080;-77
2023/09/02 03:33:00;;;;;;;10.95;9.15;;;;;;;;;;5080770;28;20044;-79
2023/09/02 03:35:26;;;;;;;12.73;9.73;;;;;;;;;;5092159;28;20093;-77
2023/09/02 03:37:52;;;;;;;11.80;9.32;;;;;;;;;;5091275;28;20399;-77
2023/09/02 03:40:18;;;;;;;11.25;9.38;;;;;;;;;;5092443;28;20044;-78
2023/09/02 03:42:45;;;;;;;13.43;9.55;;;;;;;;;;5094799;28;20043;-78
2023/09/02 03:45:11;;;;;;;12.38;8.93;;;;;;;;;;5095054;28;20489;-78
2023/09/02 03:47:37;;;;;;;11.13;9.30;;;;;;;;;;5095910;28;20080;-78
2023/09/02 03:50:04;;;;;;;11.93;9.82;;;;;;;;;;5096603;28;20044;-77
2023/09/02 03:52:30;;;;;;;11.95;9.50;;;;;;;;;;5095252;28;20047;-78
2023/09/02 03:54:57;;;;;;;12.40;9.70;;;;;;;;;;5096040;28;20040;-77
2023/09/02 03:57:24;;;;;;;13.20;9.82;;;;;;;;;;5096707;28;20502;-77
2023/09/02 03:59:50;;;;;;;11.93;10.15;;;;;;;;;;5094919;28;20048;-78
2023/09/02 04:02:16;;;;;;;13.43;9.80;;;;;;;;;;5096454;28;20094;-78
2023/09/02 04:04:42;;;;;;;12.00;9.77;;;;;;;;;;5095995;28;20083;-78
2023/09/02 04:07:08;;;;;;;13.25;9.98;;;;;;;;;;5094950;28;20043;-77
2023/09/02 04:09:34;;;;;;;12.25;10.10;;;;;;;;;;5093748;28;20055;-78
2023/09/02 04:12:01;;;;;;;14.00;10.40;;;;;;;;;;5096159;28;20488;-78
2023/09/02 04:14:27;;;;;;;13.80;10.13;;;;;;;;;;5094198;28;20032;-78
2023/09/02 04:16:54;;;;;;;13.50;10.32;;;;;;;;;;5095549;28;20050;-78
2023/09/02 04:19:20;;;;;;;14.07;10.38;;;;;;;;;;5076922;28;20044;-77
2023/09/02 04:21:47;;;;;;;14.07;10.20;;;;;;;;;;5094449;28;20514;-78
2023/09/02 04:24:13;;;;;;;12.20;10.18;;;;;;;;;;5094344;28;20083;-78
2023/09/02 04:26:39;;;;;;;13.30;10.68;;;;;;;;;;5091549;28;20063;-78
2023/09/02 04:29:05;;;;;;;14.93;11.73;;;;;;;;;;5080181;28;20456;-78
2023/09/02 04:31:31;;;;;;;12.68;10.57;;;;;;;;;;5095599;28;20047;-78
2023/09/02 04:33:57;;;;;;;12.48;10.43;;;;;;;;;;5094235;28;20440;-77
2023/09/02 04:36:23;;;;;;;14.07;11.02;;;;;;;;;;5094574;28;20053;-78
2023/09/02 04:38:53;;;;;;;13.07;11.10;;;;;;;;;;5094246;28;20093;-78
2023/09/02 04:41:19;;;;;;;14.02;10.95;;;;;;;;;;5095090;28;20050;-78
2023/09/02 04:43:45;;;;;;;13.60;10.63;;;;;;;;;;5093643;28;20044;-77
2023/09/02 04:46:12;;;;;;;13.85;11.63;;;;;;;;;;5093710;28;20036;-78
2023/09/02 04:48:38;;;;;;;14.23;10.77;;;;;;;;;;5093802;28;20454;-78
2023/09/02 04:51:05;;;;;;;16.05;11.35;;;;;;;;;;5093738;28;20147;-78
2023/09/02 04:53:31;;;;;;;13.40;11.43;;;;;;;;;;5092824;28;20048;-77
2023/09/02 04:56:00;;;;;;;13.77;10.93;;;;;;;;;;5093528;28;20044;-76
2023/09/02 04:58:27;;;;;;;17.00;12.23;;;;;;;;;;5093799;28;20048;-77
2023/09/02 05:00:53;;;;;;;14.30;11.35;;;;;;;;;;5093537;28;20052;-77
2023/09/02 05:03:19;;;;;;;12.65;10.80;;;;;;;;;;5093231;28;20469;-77
2023/09/02 05:05:45;;;;;;;14.95;11.57;;;;;;;;;;5076347;28;20044;-78
2023/09/02 05:08:11;;;;;;;12.90;10.90;;;;;;;;;;5094590;28;20358;-77
2023/09/02 05:10:38;;;;;;;14.35;11.90;;;;;;;;;;5093137;28;20047;-77
2023/09/02 05:13:04;;;;;;;14.27;11.00;;;;;;;;;;5093774;28;20155;-77
2023/09/02 05:15:30;;;;;;;15.50;11.63;;;;;;;;;;5092440;28;20071;-77
2023/09/02 05:17:58;;;;;;;12.43;10.90;;;;;;;;;;5088187;28;20075;-76
2023/09/02 05:20:24;;;;;;;14.68;11.18;;;;;;;;;;5093417;28;20052;-77
2023/09/02 05:22:50;;;;;;;14.00;11.05;;;;;;;;;;5093021;28;20097;-78
2023/09/02 05:25:16;;;;;;;16.35;11.80;;;;;;;;;;5093565;28;20043;-77
2023/09/02 05:27:44;;;;;;;15.38;11.48;;;;;;;;;;5096778;28;20109;-75
2023/09/02 05:30:10;;;;;;;14.73;11.55;;;;;;;;;;5099822;28;20596;-75
2023/09/02 05:32:36;;;;;;;14.32;11.65;;;;;;;;;;5095893;28;20112;-77
2023/09/02 05:35:02;;;;;;;13.48;11.43;;;;;;;;;;5094614;28;20051;-77
2023/09/02 05:37:28;;;;;;;13.77;11.45;;;;;;;;;;5076699;28;20044;-76
2023/09/02 05:39:54;;;;;;;17.08;12.52;;;;;;;;;;5093398;28;20130;-78
2023/09/02 05:42:20;;;;;;;15.00;12.30;;;;;;;;;;5094572;28;20342;-78
2023/09/02 05:44:46;;;;;;;18.38;12.38;;;;;;;;;;5094695;28;20046;-78
2023/09/02 05:47:12;;;;;;;17.70;12.40;;;;;;;;;;5093263;28;20089;-78
2023/09/02 05:49:38;;;;;;;15.98;12.27;;;;;;;;;;5091760;28;20111;-77
2023/09/02 05:52:05;;;;;;;15.50;12.35;;;;;;;;;;5094500;28;20110;-78
2023/09/02 05:54:32;;;;;;;15.05;12.18;;;;;;;;;;5093500;28;20051;-78
2023/09/02 05:56:58;;;;;;;17.02;12.38;;;;;;;;;;5094570;28;20109;-78
2023/09/02 05:59:24;;;;;;;15.60;12.57;;;;;;;;;;5092881;28;20086;-77
2023/09/02 06:01:50;;;;;;;19.10;13.20;;;;;;;;;;5093457;28;20048;-77
2023/09/02 06:04:16;;;;;;;16.23;12.68;;;;;;;;;;5091964;28;20044;-77
2023/09/02 06:06:45;;;;;;;15.68;12.23;;;;;;;;;;5074895;28;20048;-77
2023/09/02 06:09:11;;;;;;;15.52;11.98;;;;;;;;;;5093612;28;20397;-77
2023/09/02 06:11:37;;;;;;;16.83;12.57;;;;;;;;;;5091508;28;20582;-78
2023/09/02 06:14:03;;;;;;;15.77;12.57;;;;;;;;;;5092786;28;20102;-77
2023/09/02 06:16:29;;;;;;;17.80;13.10;;;;;;;;;;5076158;28;20105;-78
2023/09/02 06:18:55;;;;;;;15.48;12.40;;;;;;;;;;5092315;28;20043;-78
2023/09/02 06:21:21;;;;;;;16.15;11.95;;;;;;;;;;5093144;28;20166;-77
2023/09/02 06:23:48;;;;;;;15.27;12.30;;;;;;;;;;5092030;28;20052;-77
2023/09/02 06:26:14;;;;;;;16.70;12.13;;;;;;;;;;5092179;28;20123;-77
2023/09/02 06:28:40;;;;;;;19.23;12.88;;;;;;;;;;5088805;28;20083;-77
2023/09/02 06:31:07;;;;;;;17.85;12.88;;;;;;;;;;5071155;28;20059;-77
2023/09/02 06:33:33;;;;;;;16.08;12.32;;;;;;;;;;5060326;28;20052;-77
2023/09/02 06:35:59;;;;;;;15.15;12.10;;;;;;;;;;5070904;28;20078;-77
2023/09/02 06:38:25;;;;;;;15.15;12.07;;;;;;;;;;5087931;28;20445;-78
2023/09/02 06:40:51;;;;;;;15.60;11.90;;;;;;;;;;5071559;28;20080;-77
2023/09/02 06:43:18;;;;;;;15.45;12.13;;;;;;;;;;5073190;28;20041;-77
2023/09/02 06:45:44;;;;;;;17.23;12.73;;;;;;;;;;5073159;28;20071;-77
2023/09/02 06:48:10;;;;;;;16.20;11.82;;;;;;;;;;5073075;28;20048;-78
2023/09/02 06:50:36;;;;;;;17.10;12.05;;;;;;;;;;5071613;28;20051;-78
2023/09/02 06:53:02;;;;;;;15.63;12.57;;;;;;;;;;5072786;28;20093;-77
2023/09/02 06:55:28;;;;;;;17.02;12.88;;;;;;;;;;5071524;28;20041;-77
2023/09/02 06:57:55;;;;;;;14.20;11.48;;;;;;;;;;5088349;28;20405;-78
2023/09/02 07:00:21;;;;;;;17.85;11.60;;;;;;;;;;5071343;28;20186;-79
2023/09/02 07:02:47;;;;;;;15.68;12.15;;;;;;;;;;5072988;28;20048;-79
2023/09/02 07:05:13;;;;;;;15.25;12.10;;;;;;;;;;5072462;28;20107;-77
2023/09/02 07:07:39;;;;;;;18.95;12.93;;;;;;;;;;5072795;28;20401;-77
2023/09/02 07:10:06;;;;;;;16.60;12.05;;;;;;;;;;5071043;28;20059;-77
2023/09/02 07:12:32;;;;;;;15.82;12.52;;;;;;;;;;5071284;28;20135;-78
2023/09/02 07:14:58;;;;;;;16.17;12.52;;;;;;;;;;5072301;28;20040;-77
2023/09/02 07:17:26;;;;;;;16.83;12.32;;;;;;;;;;5087786;28;20132;-77
2023/09/02 07:19:52;;;;;;;17.23;12.38;;;;;;;;;;5071495;28;20060;-78
2023/09/02 07:22:19;;;;;;;22.60;13.45;;;;;;;;;;5072492;28;20055;-78
2023/09/02 07:24:45;;;;;;;20.27;13.38;;;;;;;;;;5072133;28;20044;-78
2023/09/02 07:27:11;;;;;;;33.58;15.10;;;;;;;;;;5070748;28;20097;-78
2023/09/02 07:29:37;;;;;;;28.83;13.68;;;;;;;;;;5070655;28;20076;-77
2023/09/02 07:32:03;;;;;;;20.73;13.07;;;;;;;;;;5071352;28;20464;-78
2023/09/02 07:34:34;;;;;;;18.42;12.52;;;;;;;;;;5070499;28;20127;-78
2023/09/02 07:37:00;;;;;;;14.65;11.15;;;;;;;;;;5068573;28;20140;-78
2023/09/02 07:39:28;;;;;;;14.93;11.02;;;;;;;;;;5071516;28;20036;-77
2023/09/02 07:41:54;;;;;;;14.88;11.23;;;;;;;;;;5070891;28;20515;-77
2023/09/02 07:44:20;;;;;;;14.82;10.60;;;;;;;;;;5069404;28;20098;-78
2023/09/02 07:46:46;;;;;;;15.02;10.30;;;;;;;;;;5069039;28;20078;-78
2023/09/02 07:49:12;;;;;;;15.15;10.20;;;;;;;;;;5067925;28;20045;-78
2023/09/02 07:51:38;;;;;;;15.00;10.93;;;;;;;;;;5069491;28;20105;-78
2023/09/02 07:54:04;;;;;;;11.30;9.45;;;;;;;;;;5071591;28;20037;-78
2023/09/02 07:56:30;;;;;;;15.30;9.40;;;;;;;;;;5072079;28;20132;-78
2023/09/02 07:58:56;;;;;;;15.80;9.75;;;;;;;;;;5071752;28;20043;-78
2023/09/02 08:01:22;;;;;;;11.63;8.60;;;;;;;;;;5070573;28;20127;-79
2023/09/02 08:03:49;;;;;;;14.95;9.50;;;;;;;;;;5070133;28;20036;-78
2023/09/02 08:06:15;;;;;;;12.82;8.90;;;;;;;;;;5070229;28;20053;-79
2023/09/02 08:08:41;;;;;;;14.00;9.32;;;;;;;;;;5071641;28;20126;-79
2023/09/02 08:11:07;;;;;;;14.45;9.07;;;;;;;;;;5071202;28;20049;-78
2023/09/02 08:13:34;;;;;;;11.82;8.65;;;;;;;;;;5070874;28;20067;-78
2023/09/02 08:16:05;;;;;;;12.73;9.10;;;;;;;;;;5072962;28;20044;-78
2023/09/02 08:18:31;;;;;;;13.32;7.95;;;;;;;;;;5073000;28;20041;-77
2023/09/02 08:20:57;;;;;;;11.63;8.00;;;;;;;;;;5072177;28;20044;-78
2023/09/02 08:23:23;;;;;;;13.13;8.10;;;;;;;;;;5071621;28;20127;-78
2023/09/02 08:25:49;;;;;;;12.80;7.95;;;;;;;;;;5070507;28;20040;-78
2023/09/02 08:28:15;;;;;;;12.02;8.52;;;;;;;;;;5070225;28;20116;-78
2023/09/02 08:30:41;;;;;;;11.88;7.88;;;;;;;;;;5074230;28;20112;-79
2023/09/02 08:33:07;;;;;;;11.52;7.60;;;;;;;;;;5075340;28;20040;-79
2023/09/02 08:35:37;;;;;;;12.02;8.52;;;;;;;;;;5091333;28;20133;-77
2023/09/02 08:38:06;;;;;;;13.10;8.23;;;;;;;;;;5091050;28;20044;-77
2023/09/02 08:40:32;;;;;;;12.27;7.40;;;;;;;;;;5075080;28;20048;-78
2023/09/02 08:43:02;;;;;;;11.48;7.90;;;;;;;;;;5075250;28;20207;-77
2023/09/02 08:45:29;;;;;;;9.60;7.45;;;;;;;;;;5090804;28;20055;-76
2023/09/02 08:47:59;;;;;;;9.80;6.95;;;;;;;;;;5075433;28;20075;-75
2023/09/02 08:50:27;;;;;;;9.13;6.30;;;;;;;;;;5080280;28;20064;-76
2023/09/02 08:52:53;;;;;;;11.18;6.45;;;;;;;;;;5094967;28;20044;-77
2023/09/02 08:55:20;;;;;;;11.82;6.15;;;;;;;;;;5057580;28;20101;-78
2023/09/02 08:57:46;;;;;;;9.45;6.95;;;;;;;;;;5074499;28;20123;-77
2023/09/02 09:00:12;;;;;;;11.70;6.88;;;;;;;;;;5075680;28;20496;-78
2023/09/02 09:02:38;;;;;;;11.60;7.45;;;;;;;;;;5075159;28;20048;-78
2023/09/02 09:05:05;;;;;;;10.75;6.82;;;;;;;;;;5090832;28;20055;-79
2023/09/02 09:07:32;;;;;;;18.10;7.10;;;;;;;;;;5075012;28;20056;-78
2023/09/02 09:09:59;;;;;;;14.38;6.05;;;;;;;;;;5090383;28;20060;-78
2023/09/02 09:12:26;;;;;;;10.20;6.38;;;;;;;;;;5090517;28;20147;-79
2023/09/02 09:14:54;;;;;;;10.15;6.30;;;;;;;;;;5075108;28;20076;-79
2023/09/02 09:17:20;;;;;;;14.32;6.97;;;;;;;;;;5075074;28;20102;-78
2023/09/02 09:19:47;;;;;;;11.25;6.30;;;;;;;;;;5056840;28;20131;-79
2023/09/02 09:22:13;;;;;;;14.02;6.80;;;;;;;;;;5075230;28;20044;-79
2023/09/02 09:24:39;;;;;;;9.32;6.10;;;;;;;;;;5089817;28;20055;-78
2023/09/02 09:27:06;;;;;;;11.30;6.03;;;;;;;;;;5057068;28;20417;-77
2023/09/02 09:29:41;;;;;;;11.75;6.80;;;;;;;;;;5074591;28;20311;-76
2023/09/02 09:32:09;;;;;;;10.45;6.10;;;;;;;;;;5073698;28;20056;-78
2023/09/02 09:34:37;;;;;;;10.23;5.40;;;;;;;;;;5072633;28;20036;-78
2023/09/02 09:37:03;;;;;;;11.23;6.93;;;;;;;;;;5074190;28;20048;-79
2023/09/02 09:39:51;;;;;;;10.15;6.75;;;;;;;;;;5089218;28;20083;-78
2023/09/02 09:42:18;;;;;;;9.80;7.43;;;;;;;;;;5072960;28;20457;-78
2023/09/02 09:44:57;;;;;;;11.07;7.55;;;;;;;;;;5073877;28;20089;-78
2023/09/02 09:47:24;;;;;;;10.18;6.57;;;;;;;;;;5073803;28;20465;-79
2023/09/02 09:49:50;;;;;;;11.93;6.40;;;;;;;;;;5073662;28;20053;-79
2023/09/02 09:52:17;;;;;;;10.65;6.63;;;;;;;;;;5072631;28;20131;-79
2023/09/02 09:54:55;;;;;;;10.70;6.38;;;;;;;;;;5088702;28;20044;-79
2023/09/02 09:57:30;;;;;;;9.45;7.20;;;;;;;;;;5070935;28;20075;-78
2023/09/02 09:59:56;;;;;;;;;;;;;;;;;;5072802;28;20040;-77
2023/09/02 10:02:22;;;;;;;9.80;6.85;;;;;;;;;;5073704;28;19927;-78
2023/09/02 10:04:55;;;;;;;12.50;6.70;;;;;;;;;;5073497;28;20047;-78
2023/09/02 10:07:25;;;;;;;10.20;7.03;;;;;;;;;;5073663;28;20046;-78
2023/09/02 10:09:51;;;;;;;10.13;6.20;;;;;;;;;;5073256;28;20100;-78
2023/09/02 10:12:17;;;;;;;10.50;6.18;;;;;;;;;;5073222;28;20531;-78
2023/09/02 10:14:44;;;;;;;10.52;6.28;;;;;;;;;;5072898;28;20040;-78
2023/09/02 10:17:10;;;;;;;8.93;5.20;;;;;;;;;;5072078;28;20056;-79
2023/09/02 10:19:37;;;;;;;9.15;5.88;;;;;;;;;;5071710;28;20048;-79
2023/09/02 10:22:04;;;;;;;10.00;5.03;;;;;;;;;;5088250;28;20514;-80
2023/09/02 10:24:34;;;;;;;8.60;4.63;;;;;;;;;;5092800;28;20052;-80
2023/09/02 10:27:04;;;;;;;10.23;4.57;;;;;;;;;;5091038;28;20127;-80
2023/09/02 10:29:34;;;;;;;6.82;4.10;;;;;;;;;;5075100;28;20433;-80
2023/09/02 10:32:07;;;;;;;6.78;4.50;;;;;;;;;;5093001;28;20060;-80
2023/09/02 10:34:42;;;;;;;7.82;4.20;;;;;;;;;;5092759;28;20040;-81
2023/09/02 10:37:14;;;;;;;7.43;4.43;;;;;;;;;;5093164;28;20090;-79
2023/09/02 10:39:46;;;;;;;7.03;3.83;;;;;;;;;;5092038;28;20048;-80
2023/09/02 10:42:14;;;;;;;8.13;4.03;;;;;;;;;;5093054;28;20097;-79
2023/09/02 10:44:40;;;;;;;6.75;3.47;;;;;;;;;;5091870;28;20040;-78
2023/09/02 10:47:06;;;;;;;10.82;3.78;;;;;;;;;;5075073;28;20037;-80
2023/09/02 10:49:33;;;;;;;7.90;4.20;;;;;;;;;;5093038;28;20104;-79
2023/09/02 10:51:59;;;;;;;6.97;4.03;;;;;;;;;;5091147;28;20048;-79
2023/09/02 10:54:25;;;;;;;9.05;3.70;;;;;;;;;;5091950;28;20058;-81
2023/09/02 10:56:52;;;;;;;7.30;3.92;;;;;;;;;;5091234;28;20051;-81
2023/09/02 10:59:31;;;;;;;8.13;3.85;;;;;;;;;;5092572;28;20060;-81
2023/09/02 11:01:57;;;;;;;7.38;3.97;;;;;;;;;;5093035;28;20036;-81
2023/09/02 11:04:43;;;;;;;7.32;3.80;;;;;;;;;;5092402;28;20515;-79
2023/09/02 11:07:19;;;;;;;7.32;3.63;;;;;;;;;;5091575;28;20056;-80
2023/09/02 11:09:58;;;;;;;7.65;4.40;;;;;;;;;;5091364;28;20396;-79
2023/09/02 11:12:26;;;;;;;7.00;3.78;;;;;;;;;;5090602;28;20048;-79
2023/09/02 11:15:07;;;;;;;7.05;4.50;;;;;;;;;;5091360;28;20048;-80
2023/09/02 11:17:34;;;;;;;8.95;4.45;;;;;;;;;;5088607;28;20059;-79
2023/09/02 11:20:01;;;;;;;6.65;4.25;;;;;;;;;;5088757;28;20044;-78
2023/09/02 11:22:48;;;;;;;6.65;3.85;;;;;;;;;;5089829;28;20089;-79
2023/09/02 11:25:30;;;;;;;7.63;4.18;;;;;;;;;;5093987;28;20446;-80
2023/09/02 11:28:00;;;;;;;6.05;3.90;;;;;;;;;;5076456;28;20485;-78
2023/09/02 11:30:29;;;;;;;6.55;3.85;;;;;;;;;;5087364;28;20049;-79
2023/09/02 11:32:55;;;;;;;7.38;3.35;;;;;;;;;;5086912;28;20107;-80
2023/09/02 11:35:24;;;;;;;6.78;3.70;;;;;;;;;;5086566;28;20039;-79
2023/09/02 11:37:50;;;;;;;6.43;3.70;;;;;;;;;;5089389;28;20097;-80
2023/09/02 11:40:17;;;;;;;6.72;3.40;;;;;;;;;;5073944;28;20044;-80
2023/09/02 11:42:50;;;;;;;7.45;3.10;;;;;;;;;;5092222;28;20032;-79
2023/09/02 11:45:16;;;;;;;6.70;3.25;;;;;;;;;;5091652;28;20051;-79
2023/09/02 11:47:42;;;;;;;5.43;2.97;;;;;;;;;;5090873;28;20046;-78
2023/09/02 11:50:13;;;;;;;6.82;3.03;;;;;;;;;;5090069;28;20381;-77
2023/09/02 11:52:39;;;;;;;5.00;2.80;;;;;;;;;;5092134;28;20044;-78
2023/09/02 11:55:09;;;;;;;8.63;3.10;;;;;;;;;;5092196;28;20036;-78
2023/09/02 11:57:35;;;;;;;4.28;2.50;;;;;;;;;;5091773;28;20048;-79
2023/09/02 12:00:01;;;;;;;5.88;2.83;;;;;;;;;;5090547;28;20044;-78
2023/09/02 12:02:27;;;;;;;5.22;2.63;;;;;;;;;;5090955;28;20080;-79
2023/09/02 12:04:53;;;;;;;5.32;2.80;;;;;;;;;;5096110;28;20051;-78
2023/09/02 12:07:20;;;;;;;4.97;2.40;;;;;;;;;;5096445;28;20048;-79
2023/09/02 12:09:46;;;;;;;4.68;2.55;;;;;;;;;;5098904;28;20055;-76
2023/09/02 12:12:15;;;;;;;5.50;2.53;;;;;;;;;;5101127;28;20465;-78
2023/09/02 12:14:41;;;;;;;4.55;2.15;;;;;;;;;;5095104;28;20040;-78
2023/09/02 12:17:08;;;;;;;4.90;2.03;;;;;;;;;;5095165;28;20082;-78
2023/09/02 12:19:34;;;;;;;5.32;2.00;;;;;;;;;;5094421;28;20053;-78
2023/09/02 12:22:01;;;;;;;4.93;2.10;;;;;;;;;;5095737;28;20453;-78
2023/09/02 12:24:29;;;;;;;4.28;1.90;;;;;;;;;;5093943;28;20046;-77
2023/09/02 12:26:56;;;;;;;4.72;2.35;;;;;;;;;;5090614;28;20126;-78
2023/09/02 12:29:22;;;;;;;4.03;2.00;;;;;;;;;;5075635;28;20416;-79
2023/09/02 12:31:55;;;;;;;4.15;2.10;;;;;;;;;;5057301;28;20494;-79
2023/09/02 12:34:22;;;;;;;5.40;1.90;;;;;;;;;;5090640;28;20044;-79
2023/09/02 12:36:48;;;;;;;5.10;2.03;;;;;;;;;;5090832;28;20048;-79
2023/09/02 12:39:33;;;;;;;4.32;1.80;;;;;;;;;;5089405;28;20045;-78
2023/09/02 12:42:00;;;;;;;3.72;2.17;;;;;;;;;;5073926;28;20394;-78
2023/09/02 12:44:26;;;;;;;4.82;2.10;;;;;;;;;;5074790;28;20131;-79
2023/09/02 12:46:52;;;;;;;3.70;1.83;;;;;;;;;;5074898;28;20044;-79
2023/09/02 12:49:18;;;;;;;4.53;1.92;;;;;;;;;;5073752;28;20056;-79
2023/09/02 12:51:44;;;;;;;3.50;1.80;;;;;;;;;;5073398;28;20063;-79
2023/09/02 12:54:14;;;;;;;3.88;2.17;;;;;;;;;;5072409;28;20053;-79
2023/09/02 12:56:40;;;;;;;5.68;2.13;;;;;;;;;;5074137;28;20089;-78
2023/09/02 12:59:07;;;;;;;4.65;2.00;;;;;;;;;;5073199;28;20044;-79
2023/09/02 13:01:33;;;;;;;5.90;2.08;;;;;;;;;;5073843;28;20404;-79
2023/09/02 13:04:00;;;;;;;5.57;2.35;;;;;;;;;;5074367;28;20056;-78
2023/09/02 13:06:35;;;;;;;5.22;2.50;;;;;;;;;;5074951;28;20086;-79
2023/09/02 13:09:01;;;;;;;5.22;2.38;;;;;;;;;;5073962;28;20053;-78
2023/09/02 13:11:27;;;;;;;4.95;2.20;;;;;;;;;;5073348;28;20056;-79
2023/09/02 13:13:54;;;;;;;4.22;2.22;;;;;;;;;;5056725;28;20393;-79
2023/09/02 13:16:20;;;;;;;4.95;2.40;;;;;;;;;;5071932;28;20094;-77
2023/09/02 13:18:46;;;;;;;5.15;2.40;;;;;;;;;;5073261;28;20055;-78
2023/09/02 13:21:13;;;;;;;4.95;2.55;;;;;;;;;;5073001;28;20106;-78
2023/09/02 13:23:39;;;;;;;3.58;2.05;;;;;;;;;;5074328;28;20037;-78
2023/09/02 13:26:16;;;;;;;6.47;2.17;;;;;;;;;;5073240;28;20105;-78
2023/09/02 13:28:42;;;;;;;5.00;2.20;;;;;;;;;;5092333;28;20035;-77
2023/09/02 13:31:09;;;;;;;6.57;2.30;;;;;;;;;;5094236;28;20055;-79
2023/09/02 13:33:39;;;;;;;4.57;2.20;;;;;;;;;;5076031;28;20077;-78
2023/09/02 13:36:05;;;;;;;4.80;2.25;;;;;;;;;;5094288;28;20043;-79
2023/09/02 13:38:34;;;;;;;3.95;1.95;;;;;;;;;;5092887;28;20048;-78
2023/09/02 13:41:00;;;;;;;3.72;2.10;;;;;;;;;;5094117;28;20134;-80
2023/09/02 13:43:26;;;;;;;5.60;2.30;;;;;;;;;;5094212;28;20476;-78
2023/09/02 13:45:52;;;;;;;4.65;2.15;;;;;;;;;;5094048;28;20082;-78
2023/09/02 13:48:19;;;;;;;3.50;1.77;;;;;;;;;;5094308;28;20075;-80
2023/09/02 13:50:50;;;;;;;4.53;1.90;;;;;;;;;;5092249;28;20048;-80
2023/09/02 13:53:18;;;;;;;3.65;1.80;;;;;;;;;;5092335;28;20067;-80
2023/09/02 13:55:45;;;;;;;4.07;1.77;;;;;;;;;;5090872;28;20567;-80
2023/09/02 13:58:13;;;;;;;3.08;1.70;;;;;;;;;;5092824;28;20131;-80
2023/09/02 14:00:40;;;;;;;4.72;2.00;;;;;;;;;;5093239;28;20067;-80
2023/09/02 14:03:25;;;;;;;3.88;2.03;;;;;;;;;;5092845;28;20503;-80
2023/09/02 14:05:52;;;;;;;4.28;1.95;;;;;;;;;;5093184;28;20126;-79
2023/09/02 14:08:34;;;;;;;4.53;1.90;;;;;;;;;;5092465;28;20047;-80
2023/09/02 14:11:00;;;;;;;4.82;2.00;;;;;;;;;;5094263;28;20060;-80
2023/09/02 14:13:26;;;;;;;2.75;1.50;;;;;;;;;;5093775;28;20040;-80
2023/09/02 14:15:52;;;;;;;4.85;1.90;;;;;;;;;;5092189;28;20085;-80
2023/09/02 14:18:18;;;;;;;4.70;1.95;;;;;;;;;;5093845;28;20040;-80
2023/09/02 14:20:44;;;;;;;2.60;1.60;;;;;;;;;;5093143;28;20119;-80
2023/09/02 14:23:11;;;;;;;4.47;1.80;;;;;;;;;;5092132;28;20341;-80
2023/09/02 14:25:37;;;;;;;3.83;1.80;;;;;;;;;;5091741;28;20048;-79
2023/09/02 14:28:03;;;;;;;2.72;1.60;;;;;;;;;;5070655;28;20040;-78
2023/09/02 14:30:30;;;;;;;4.88;1.80;;;;;;;;;;5088566;28;20079;-78
2023/09/02 14:32:56;;;;;;;3.80;1.80;;;;;;;;;;5092682;28;20044;-79
2023/09/02 14:35:22;;;;;;;3.22;1.58;;;;;;;;;;5092287;28;20123;-79